Time;durP1;ratioP1;P1;durP2;ratioP2;P2;SDS_P1;SDS_P2;PMS_P1;PMS_P2;Temp;Humidity;BMP_temperature;BMP_pressure;BME280_temperature;BME280_humidity;BME280_pressure;Samples;Min_cycle;Max_cycle;Signal;HPM_P1;HPM_P2
2021/07/25 00:00:11;;;;;;;24.77;17.50;;;18.70;99.90;;;;;;5013314;28;20636;-75
2021/07/25 00:02:37;;;;;;;25.50;18.43;;;18.70;99.90;;;;;;5013457;28;20184;-75
2021/07/25 00:05:05;;;;;;;19.83;16.70;;;18.70;99.90;;;;;;5033483;28;20217;-75
2021/07/25 00:07:31;;;;;;;21.53;18.23;;;18.80;99.90;;;;;;5015281;28;20189;-75
2021/07/25 00:09:56;;;;;;;23.40;18.40;;;18.80;99.90;;;;;;5032927;28;20170;-75
2021/07/25 00:12:22;;;;;;;24.67;18.67;;;18.80;99.90;;;;;;5032922;28;20186;-75
2021/07/25 00:14:48;;;;;;;20.23;17.23;;;18.80;99.90;;;;;;5032935;28;20177;-75
2021/07/25 00:17:14;;;;;;;23.60;17.90;;;18.70;99.90;;;;;;5015752;28;20273;-75
2021/07/25 00:19:39;;;;;;;21.37;17.83;;;18.80;99.90;;;;;;5032163;28;20244;-77
2021/07/25 00:22:06;;;;;;;19.13;16.70;;;18.70;99.90;;;;;;5035632;28;20194;-75
2021/07/25 00:24:34;;;;;;;23.63;17.27;;;18.70;99.90;;;;;;5017375;28;20209;-76
2021/07/25 00:27:01;;;;;;;18.50;16.50;;;18.60;99.90;;;;;;5035632;28;20199;-76
2021/07/25 00:29:31;;;;;;;21.50;16.87;;;18.50;99.90;;;;;;5018558;28;20170;-75
2021/07/25 00:32:05;;;;;;;16.93;15.27;;;18.60;99.90;;;;;;5018042;28;20197;-75
2021/07/25 00:34:33;;;;;;;17.40;15.70;;;18.70;99.90;;;;;;5018751;28;20260;-75
2021/07/25 00:36:59;;;;;;;17.60;15.80;;;18.70;99.90;;;;;;5018623;28;20588;-75
2021/07/25 00:39:25;;;;;;;19.43;15.47;;;18.80;99.90;;;;;;5019777;28;20553;-75
2021/07/25 00:41:51;;;;;;;17.53;15.73;;;18.80;99.90;;;;;;5018697;28;20198;-75
2021/07/25 00:44:18;;;;;;;16.97;15.30;;;18.70;99.90;;;;;;5038826;28;20170;-75
2021/07/25 00:46:58;;;;;;;18.33;15.43;;;18.80;99.90;;;;;;5036288;28;20191;-75
2021/07/25 00:49:25;;;;;;;17.13;15.33;;;18.80;99.90;;;;;;5018521;28;20270;-75
2021/07/25 00:51:51;;;;;;;20.03;16.37;;;18.80;99.90;;;;;;5036099;28;20202;-75
2021/07/25 00:54:16;;;;;;;17.30;15.57;;;18.90;99.90;;;;;;5018397;28;20167;-75
2021/07/25 00:56:42;;;;;;;18.30;15.80;;;18.80;99.90;;;;;;5036065;28;20185;-75
2021/07/25 00:59:08;;;;;;;16.93;15.23;;;18.70;99.90;;;;;;5036005;28;20181;-75
2021/07/25 01:01:33;;;;;;;17.47;15.67;;;18.80;99.90;;;;;;5036179;28;20231;-76
2021/07/25 01:04:08;;;;;;;18.17;15.57;;;18.80;99.90;;;;;;5035985;28;20174;-75
2021/07/25 01:06:45;;;;;;;16.53;14.90;;;18.80;99.90;;;;;;5034519;28;20194;-75
2021/07/25 01:09:35;;;;;;;17.47;15.57;;;18.80;99.90;;;;;;5036581;28;20293;-75
2021/07/25 01:12:06;;;;;;;18.33;15.27;;;18.80;99.90;;;;;;5034753;28;20574;-75
2021/07/25 01:14:34;;;;;;;19.03;15.83;;;18.80;99.90;;;;;;5035696;28;20170;-75
2021/07/25 01:17:22;;;;;;;18.50;16.70;;;18.80;99.90;;;;;;5034461;28;20181;-75
2021/07/25 01:19:51;;;;;;;19.53;17.60;;;18.80;99.90;;;;;;5035766;28;20190;-76
2021/07/25 01:22:17;;;;;;;17.93;16.03;;;18.70;99.90;;;;;;5018415;28;20651;-75
2021/07/25 01:24:44;;;;;;;20.77;17.10;;;18.70;99.90;;;;;;5035552;28;20228;-75
2021/07/25 01:27:17;;;;;;;20.03;16.73;;;18.60;99.90;;;;;;5035827;28;20248;-75
2021/07/25 01:29:43;;;;;;;18.73;15.97;;;18.60;99.90;;;;;;5035475;28;20158;-75
2021/07/25 01:32:10;;;;;;;17.37;15.00;;;18.70;99.90;;;;;;5034375;28;20658;-75
2021/07/25 01:34:36;;;;;;;16.40;14.80;;;18.70;99.90;;;;;;5017636;28;20200;-75
2021/07/25 01:37:03;;;;;;;21.90;15.10;;;18.80;99.90;;;;;;5017528;28;20265;-75
2021/07/25 01:39:28;;;;;;;19.90;15.00;;;18.60;99.90;;;;;;5038186;28;20174;-75
2021/07/25 01:41:54;;;;;;;20.33;14.30;;;18.60;99.90;;;;;;5035376;28;20190;-75
2021/07/25 01:44:20;;;;;;;15.53;13.43;;;18.60;99.90;;;;;;5032803;28;20704;-75
2021/07/25 01:46:46;;;;;;;17.77;15.93;;;18.60;99.90;;;;;;5040836;28;20277;-76
2021/07/25 01:49:11;;;;;;;19.43;14.87;;;18.70;99.90;;;;;;5049251;28;20212;-75
2021/07/25 01:51:37;;;;;;;17.70;15.50;;;18.70;99.90;;;;;;5052775;28;20201;-76
2021/07/25 01:54:03;;;;;;;20.67;16.47;;;18.80;99.90;;;;;;5051625;28;20220;-76
2021/07/25 01:56:28;;;;;;;18.60;15.83;;;18.80;99.90;;;;;;5034907;28;20231;-76
2021/07/25 01:58:56;;;;;;;20.17;15.70;;;18.80;99.90;;;;;;5051567;28;20181;-76
2021/07/25 02:01:22;;;;;;;19.03;16.60;;;18.80;99.90;;;;;;5034856;28;20639;-76
2021/07/25 02:03:48;;;;;;;18.13;16.30;;;18.80;99.90;;;;;;5034907;28;20201;-76
2021/07/25 02:06:14;;;;;;;16.80;14.87;;;18.80;99.90;;;;;;5052643;28;20845;-76
2021/07/25 02:08:39;;;;;;;16.80;15.20;;;18.80;99.90;;;;;;5036587;28;20641;-75
2021/07/25 02:11:08;;;;;;;16.73;15.03;;;18.80;99.90;;;;;;5054524;28;20244;-75
2021/07/25 02:13:34;;;;;;;18.40;16.03;;;18.70;99.90;;;;;;5054590;28;20633;-75
2021/07/25 02:16:01;;;;;;;20.30;17.33;;;18.60;99.90;;;;;;5054486;28;20182;-75
2021/07/25 02:18:27;;;;;;;19.00;16.37;;;18.40;99.90;;;;;;5054466;28;20661;-75
2021/07/25 02:20:53;;;;;;;18.73;16.93;;;18.50;99.90;;;;;;5054602;28;20207;-75
2021/07/25 02:23:19;;;;;;;23.93;16.90;;;18.40;99.90;;;;;;5053671;28;20169;-75
2021/07/25 02:25:44;;;;;;;19.67;15.87;;;18.40;99.90;;;;;;5054291;28;20538;-75
2021/07/25 02:28:10;;;;;;;16.63;15.13;;;18.40;99.90;;;;;;5054531;28;20169;-75
2021/07/25 02:30:36;;;;;;;16.97;15.10;;;18.50;99.90;;;;;;5036187;28;20182;-75
2021/07/25 02:33:02;;;;;;;18.43;15.63;;;18.60;99.90;;;;;;5052952;28;20204;-75
2021/07/25 02:35:28;;;;;;;16.70;15.10;;;18.70;99.90;;;;;;5054427;28;20173;-75
2021/07/25 02:37:54;;;;;;;16.77;15.17;;;18.60;99.90;;;;;;5053058;28;20180;-75
2021/07/25 02:40:20;;;;;;;17.23;14.30;;;18.70;99.90;;;;;;5054273;28;20220;-75
2021/07/25 02:42:46;;;;;;;15.97;13.50;;;18.70;99.90;;;;;;5053970;28;20170;-75
2021/07/25 02:45:12;;;;;;;14.97;13.50;;;18.60;99.90;;;;;;5053665;28;20176;-75
2021/07/25 02:47:37;;;;;;;14.13;12.70;;;18.50;99.90;;;;;;5053913;28;20170;-75
2021/07/25 02:50:04;;;;;;;14.10;12.63;;;18.60;99.90;;;;;;5052021;28;20640;-76
2021/07/25 02:52:29;;;;;;;13.57;12.10;;;18.60;99.90;;;;;;5075355;22;20221;-72
2021/07/25 02:54:55;;;;;;;14.40;12.87;;;18.60;99.90;;;;;;5036013;28;20170;-73
2021/07/25 02:57:21;;;;;;;14.33;13.07;;;18.60;99.90;;;;;;5054090;28;20181;-72
2021/07/25 02:59:46;;;;;;;14.33;12.97;;;18.60;99.90;;;;;;5035913;28;20260;-71
2021/07/25 03:02:12;;;;;;;14.47;13.03;;;18.50;99.90;;;;;;5041391;28;20201;-73
2021/07/25 03:04:37;;;;;;;12.80;11.47;;;18.40;99.90;;;;;;5016149;28;20178;-74
2021/07/25 03:07:03;;;;;;;18.07;14.77;;;18.40;99.90;;;;;;5033644;28;20662;-73
2021/07/25 03:09:29;;;;;;;16.40;13.97;;;18.50;99.90;;;;;;5033759;28;20170;-72
2021/07/25 03:11:54;;;;;;;14.60;13.13;;;18.50;99.90;;;;;;5015284;28;20250;-72
2021/07/25 03:14:20;;;;;;;14.47;13.30;;;18.50;99.90;;;;;;5014504;28;20175;-74
2021/07/25 03:16:46;;;;;;;14.40;12.87;;;18.60;99.90;;;;;;5015149;28;20254;-76
2021/07/25 03:19:12;;;;;;;14.07;12.53;;;18.50;99.90;;;;;;5032207;28;20181;-73
2021/07/25 03:21:38;;;;;;;14.07;12.67;;;18.60;99.90;;;;;;5032476;28;20190;-74
2021/07/25 03:24:04;;;;;;;13.87;12.47;;;18.60;99.90;;;;;;5032411;28;20273;-74
2021/07/25 03:26:29;;;;;;;13.30;11.97;;;18.60;99.90;;;;;;5032386;28;20203;-74
2021/07/25 03:28:55;;;;;;;13.17;11.90;;;18.50;99.90;;;;;;5014490;28;20220;-74
2021/07/25 03:31:23;;;;;;;13.07;11.87;;;18.50;99.90;;;;;;5032506;28;20190;-72
2021/07/25 03:33:49;;;;;;;13.17;11.97;;;18.50;99.90;;;;;;5031680;28;20174;-76
2021/07/25 03:36:15;;;;;;;14.80;12.80;;;18.40;99.90;;;;;;5030828;28;20922;-71
2021/07/25 03:38:40;;;;;;;13.53;12.23;;;18.50;99.90;;;;;;5013046;28;20634;-72
2021/07/25 03:41:06;;;;;;;14.23;12.93;;;18.50;99.90;;;;;;5030632;28;20676;-71
2021/07/25 03:43:33;;;;;;;18.90;13.57;;;18.60;99.90;;;;;;5012922;28;20221;-76
2021/07/25 03:45:59;;;;;;;15.10;13.50;;;18.50;99.90;;;;;;5012720;28;20198;-76
2021/07/25 03:48:25;;;;;;;14.33;13.00;;;18.60;99.90;;;;;;5014098;28;20638;-76
2021/07/25 03:50:52;;;;;;;15.33;13.73;;;18.40;99.90;;;;;;5031275;28;20912;-76
2021/07/25 03:53:18;;;;;;;16.37;13.87;;;18.30;99.90;;;;;;5012694;28;20185;-75
2021/07/25 03:55:44;;;;;;;14.17;12.67;;;18.20;99.90;;;;;;5032017;28;20562;-71
2021/07/25 03:58:11;;;;;;;14.63;13.13;;;18.10;99.90;;;;;;5016914;28;20167;-72
2021/07/25 04:00:37;;;;;;;15.30;13.90;;;18.20;99.90;;;;;;5033689;28;20182;-75
2021/07/25 04:03:03;;;;;;;14.90;13.63;;;18.30;99.90;;;;;;5031067;28;20265;-76
2021/07/25 04:05:29;;;;;;;16.10;14.50;;;18.40;99.90;;;;;;5036064;28;20188;-75
2021/07/25 04:07:55;;;;;;;18.43;14.30;;;18.40;99.90;;;;;;5050379;28;20220;-75
2021/07/25 04:10:21;;;;;;;16.47;14.27;;;18.40;99.90;;;;;;5053111;28;20181;-76
2021/07/25 04:12:47;;;;;;;16.73;14.80;;;18.40;99.90;;;;;;5050480;28;20185;-73
2021/07/25 04:15:13;;;;;;;15.70;14.03;;;18.30;99.90;;;;;;5035967;28;20265;-73
2021/07/25 04:17:38;;;;;;;16.80;15.10;;;18.30;99.90;;;;;;5052042;28;20181;-71
2021/07/25 04:20:05;;;;;;;15.33;13.80;;;18.30;99.90;;;;;;5052860;28;20178;-75
2021/07/25 04:22:34;;;;;;;14.70;13.40;;;18.20;99.90;;;;;;5052768;28;20255;-75
2021/07/25 04:25:00;;;;;;;15.27;13.73;;;18.30;99.90;;;;;;5032869;28;20512;-75
2021/07/25 04:27:27;;;;;;;13.97;12.17;;;18.30;99.90;;;;;;5050487;28;20568;-71
2021/07/25 04:29:54;;;;;;;14.87;12.27;;;18.30;99.90;;;;;;5037254;28;20606;-75
2021/07/25 04:32:20;;;;;;;13.53;12.33;;;18.30;99.90;;;;;;5037378;28;20716;-75
2021/07/25 04:34:46;;;;;;;14.40;12.93;;;18.30;99.90;;;;;;5056820;28;20549;-74
2021/07/25 04:37:22;;;;;;;13.20;12.10;;;18.30;99.90;;;;;;5056383;28;20220;-75
2021/07/25 04:39:48;;;;;;;14.33;13.03;;;18.30;99.90;;;;;;5056418;28;20626;-73
2021/07/25 04:42:17;;;;;;;14.40;13.00;;;18.30;99.90;;;;;;5056411;28;20573;-75
2021/07/25 04:44:57;;;;;;;13.13;12.00;;;18.30;99.90;;;;;;5056485;28;20613;-73
2021/07/25 04:47:33;;;;;;;12.30;11.20;;;18.30;99.90;;;;;;5038980;28;20235;-76
2021/07/25 04:50:13;;;;;;;12.93;11.83;;;18.40;99.90;;;;;;5056172;28;20158;-75
2021/07/25 04:52:41;;;;;;;12.13;11.03;;;18.50;99.90;;;;;;5055966;28;20589;-75
2021/07/25 04:55:09;;;;;;;11.17;10.27;;;18.50;99.90;;;;;;5036635;28;20171;-75
2021/07/25 04:57:42;;;;;;;11.60;10.43;;;18.50;99.90;;;;;;5036038;28;20185;-73
2021/07/25 05:00:14;;;;;;;12.23;11.23;;;18.40;99.90;;;;;;5035033;28;20178;-76
2021/07/25 05:02:42;;;;;;;16.30;10.70;;;18.30;99.90;;;;;;5036024;28;20198;-73
2021/07/25 05:05:09;;;;;;;12.57;10.27;;;18.30;99.90;;;;;;5034754;28;20317;-73
2021/07/25 05:07:39;;;;;;;13.40;12.03;;;18.30;99.90;;;;;;5036228;28;20256;-75
2021/07/25 05:10:06;;;;;;;11.87;10.67;;;18.40;99.90;;;;;;5036471;28;20170;-73
2021/07/25 05:12:38;;;;;;;12.97;11.73;;;18.40;99.90;;;;;;5035981;28;20186;-74
2021/07/25 05:15:05;;;;;;;12.73;11.60;;;18.30;99.90;;;;;;5034574;28;20175;-76
2021/07/25 05:17:40;;;;;;;13.17;11.80;;;18.30;99.90;;;;;;5034541;28;20178;-70
2021/07/25 05:20:14;;;;;;;15.53;11.77;;;18.40;99.90;;;;;;5035778;28;20170;-73
2021/07/25 05:22:53;;;;;;;15.23;12.53;;;18.40;99.90;;;;;;5035541;28;20735;-72
2021/07/25 05:25:21;;;;;;;11.93;11.03;;;18.40;99.90;;;;;;5035531;28;20641;-75
2021/07/25 05:27:49;;;;;;;12.30;11.20;;;18.40;99.90;;;;;;5028496;28;20182;-75
2021/07/25 05:30:17;;;;;;;12.93;11.53;;;18.30;99.90;;;;;;5024026;28;20205;-75
2021/07/25 05:32:43;;;;;;;12.57;11.37;;;18.30;99.90;;;;;;5006052;28;20225;-75
2021/07/25 05:35:09;;;;;;;14.93;11.73;;;18.40;99.90;;;;;;5007718;28;20213;-76
2021/07/25 05:37:35;;;;;;;12.13;11.13;;;18.40;99.90;;;;;;5023727;28;20237;-75
2021/07/25 05:40:01;;;;;;;14.07;12.80;;;18.30;99.90;;;;;;5022677;28;20177;-75
2021/07/25 05:42:30;;;;;;;13.40;12.20;;;18.40;99.90;;;;;;5024562;28;20205;-75
2021/07/25 05:44:56;;;;;;;14.30;12.87;;;18.40;99.90;;;;;;5005877;28;20178;-75
2021/07/25 05:47:21;;;;;;;13.63;12.33;;;18.40;99.90;;;;;;5022054;28;20567;-75
2021/07/25 05:49:47;;;;;;;14.00;12.47;;;18.50;99.90;;;;;;5004771;28;20193;-75
2021/07/25 05:52:13;;;;;;;14.57;12.10;;;18.40;99.90;;;;;;5023656;28;20647;-74
2021/07/25 05:54:38;;;;;;;13.20;12.00;;;18.30;99.90;;;;;;5011629;28;20698;-75
2021/07/25 05:57:04;;;;;;;13.93;12.63;;;18.40;99.90;;;;;;5023521;28;20252;-75
2021/07/25 05:59:30;;;;;;;13.93;12.60;;;18.50;99.90;;;;;;5005492;28;20186;-75
2021/07/25 06:01:55;;;;;;;13.30;12.10;;;18.40;99.90;;;;;;5022016;28;20685;-76
2021/07/25 06:04:21;;;;;;;15.50;12.60;;;18.40;99.90;;;;;;5023621;28;20224;-73
2021/07/25 06:06:46;;;;;;;14.67;13.37;;;18.40;99.90;;;;;;5023661;28;20223;-75
2021/07/25 06:09:12;;;;;;;16.83;12.90;;;18.50;99.90;;;;;;5021525;28;20179;-75
2021/07/25 06:11:38;;;;;;;14.93;13.47;;;18.50;99.90;;;;;;5024678;28;20186;-73
2021/07/25 06:14:05;;;;;;;20.33;14.13;;;18.60;99.90;;;;;;5004342;28;20171;-75
2021/07/25 06:16:31;;;;;;;15.27;13.87;;;18.70;99.90;;;;;;5021526;28;20262;-75
2021/07/25 06:18:56;;;;;;;15.33;13.90;;;18.70;99.90;;;;;;5022554;28;20642;-75
2021/07/25 06:21:23;;;;;;;15.53;14.03;;;18.80;99.90;;;;;;5022743;28;20187;-74
2021/07/25 06:23:50;;;;;;;14.47;13.03;;;18.80;99.90;;;;;;5022862;28;20541;-75
2021/07/25 06:26:16;;;;;;;15.20;13.57;;;18.80;99.90;;;;;;5024379;28;20240;-75
2021/07/25 06:28:45;;;;;;;13.30;12.27;;;18.90;99.90;;;;;;5022965;28;20163;-75
2021/07/25 06:31:13;;;;;;;14.50;12.50;;;18.90;99.90;;;;;;5022668;28;20250;-72
2021/07/25 06:33:40;;;;;;;15.13;12.40;;;18.80;99.90;;;;;;5012996;28;20225;-75
2021/07/25 06:36:11;;;;;;;12.23;11.10;;;18.90;99.90;;;;;;5007583;28;20212;-73
2021/07/25 06:38:38;;;;;;;13.03;11.97;;;18.80;99.90;;;;;;5013432;28;20167;-72
2021/07/25 06:41:04;;;;;;;13.37;11.93;;;18.80;99.90;;;;;;5016572;28;20185;-73
2021/07/25 06:43:30;;;;;;;12.20;11.17;;;18.80;99.90;;;;;;5033232;28;20181;-74
2021/07/25 06:45:56;;;;;;;13.53;12.23;;;18.80;99.90;;;;;;5033417;28;20190;-73
2021/07/25 06:48:24;;;;;;;13.63;12.23;;;18.90;99.90;;;;;;5006324;28;20175;-73
2021/07/25 06:50:52;;;;;;;13.33;12.23;;;19.00;99.90;;;;;;5014733;28;20171;-72
2021/07/25 06:53:20;;;;;;;13.80;12.50;;;19.10;99.90;;;;;;5019114;28;20185;-75
2021/07/25 06:55:47;;;;;;;12.40;11.30;;;19.10;99.90;;;;;;5034270;28;20186;-76
2021/07/25 06:58:13;;;;;;;11.17;10.17;;;19.10;99.90;;;;;;5032026;28;20655;-75
2021/07/25 07:00:39;;;;;;;10.33;9.33;;;19.20;99.90;;;;;;5028320;28;20178;-75
2021/07/25 07:03:04;;;;;;;10.57;9.47;;;19.20;99.90;;;;;;5014983;28;20265;-73
2021/07/25 07:05:32;;;;;;;11.00;10.00;;;19.20;99.90;;;;;;5032271;28;20178;-75
2021/07/25 07:08:06;;;;;;;10.33;9.27;;;19.30;99.90;;;;;;5032729;28;20224;-76
2021/07/25 07:10:39;;;;;;;10.00;9.27;;;19.30;99.90;;;;;;5032366;28;20158;-75
2021/07/25 07:13:07;;;;;;;10.67;9.77;;;19.30;99.90;;;;;;5014904;28;20193;-75
2021/07/25 07:15:34;;;;;;;10.53;9.53;;;19.40;99.90;;;;;;5032119;28;20205;-74
2021/07/25 07:18:00;;;;;;;8.93;8.13;;;19.50;99.90;;;;;;5014809;28;20178;-75
2021/07/25 07:20:27;;;;;;;10.27;8.40;;;19.50;99.90;;;;;;5014289;28;20248;-75
2021/07/25 07:22:58;;;;;;;9.43;8.53;;;19.50;99.90;;;;;;5033492;28;20193;-75
2021/07/25 07:25:27;;;;;;;9.70;8.70;;;19.50;99.90;;;;;;5032608;28;20285;-72
2021/07/25 07:27:53;;;;;;;8.47;7.53;;;19.50;99.90;;;;;;5031546;28;20261;-75
2021/07/25 07:30:20;;;;;;;10.37;9.47;;;19.50;99.90;;;;;;5014842;28;20675;-71
2021/07/25 07:32:46;;;;;;;8.53;7.73;;;19.50;99.90;;;;;;5033179;28;20193;-75
2021/07/25 07:35:12;;;;;;;8.40;7.70;;;19.50;99.90;;;;;;5032905;28;20635;-74
2021/07/25 07:37:37;;;;;;;9.10;8.13;;;19.50;99.90;;;;;;5014261;28;20185;-72
2021/07/25 07:40:04;;;;;;;8.10;7.40;;;19.50;99.90;;;;;;5014273;28;20178;-75
2021/07/25 07:42:30;;;;;;;8.97;8.17;;;19.50;99.90;;;;;;5014083;28;20209;-76
2021/07/25 07:44:56;;;;;;;9.00;8.20;;;19.60;99.90;;;;;;5031761;28;20182;-75
2021/07/25 07:47:23;;;;;;;8.53;7.83;;;19.60;99.90;;;;;;5014149;28;20263;-75
2021/07/25 07:49:49;;;;;;;9.53;8.73;;;19.60;99.90;;;;;;5032758;28;20170;-76
2021/07/25 07:52:15;;;;;;;9.60;8.60;;;19.60;99.90;;;;;;5033936;28;20237;-75
2021/07/25 07:54:41;;;;;;;10.23;8.50;;;19.60;99.90;;;;;;5032414;28;20780;-75
2021/07/25 07:57:07;;;;;;;8.90;8.00;;;19.60;99.90;;;;;;5031658;28;20178;-75
2021/07/25 07:59:32;;;;;;;9.93;8.20;;;19.60;99.90;;;;;;5029638;28;20179;-75
2021/07/25 08:01:59;;;;;;;9.00;8.13;;;19.60;99.90;;;;;;5030949;28;20221;-75
2021/07/25 08:04:27;;;;;;;9.93;9.03;;;19.70;99.90;;;;;;5031048;28;20201;-75
2021/07/25 08:06:53;;;;;;;9.90;8.53;;;19.70;99.90;;;;;;5030809;28;20194;-75
2021/07/25 08:09:19;;;;;;;9.90;8.40;;;19.70;99.90;;;;;;5030837;28;20308;-75
2021/07/25 08:11:47;;;;;;;9.87;8.87;;;19.80;99.90;;;;;;5030776;28;20198;-74
2021/07/25 08:14:13;;;;;;;8.73;7.73;;;19.90;99.90;;;;;;5029618;28;20182;-75
2021/07/25 08:16:40;;;;;;;8.40;7.50;;;19.90;99.90;;;;;;5030847;28;20185;-73
2021/07/25 08:19:06;;;;;;;9.27;8.37;;;19.90;99.90;;;;;;5031183;28;20175;-76
2021/07/25 08:21:32;;;;;;;8.57;7.87;;;20.10;99.90;;;;;;5031869;28;20198;-76
2021/07/25 08:23:57;;;;;;;7.60;6.90;;;20.20;99.90;;;;;;5034675;28;20325;-76
2021/07/25 08:26:23;;;;;;;9.20;7.13;;;20.30;99.90;;;;;;5033887;28;20269;-76
2021/07/25 08:28:49;;;;;;;7.63;6.93;;;20.40;99.90;;;;;;5031819;28;20189;-73
2021/07/25 08:31:14;;;;;;;9.10;7.20;;;20.50;99.90;;;;;;5048612;23;20226;-75
2021/07/25 08:33:40;;;;;;;7.13;6.47;;;20.50;99.90;;;;;;5035350;28;20175;-75
2021/07/25 08:36:05;;;;;;;7.10;6.40;;;20.60;99.90;;;;;;5032768;28;20170;-75
2021/07/25 08:38:31;;;;;;;7.67;6.87;;;20.50;99.90;;;;;;5037465;28;20522;-75
2021/07/25 08:41:15;;;;;;;7.53;6.87;;;20.50;99.90;;;;;;5045529;28;20268;-75
2021/07/25 08:43:46;;;;;;;7.20;6.50;;;20.60;99.90;;;;;;5018786;28;20256;-75
2021/07/25 08:46:19;;;;;;;8.17;7.33;;;20.60;99.90;;;;;;5036611;28;20190;-75
2021/07/25 08:48:50;;;;;;;8.93;7.20;;;20.70;99.90;;;;;;5036009;28;20167;-76
2021/07/25 08:51:18;;;;;;;7.13;6.53;;;20.70;99.90;;;;;;5037560;28;20214;-80
2021/07/25 08:54:14;;;;;;;7.90;7.20;;;20.70;99.90;;;;;;5035703;28;20554;-77
2021/07/25 08:56:40;;;;;;;8.43;7.73;;;20.80;99.90;;;;;;5064594;22;20598;-73
2021/07/25 09:36:07;;;;;;;7.27;6.53;;;21.20;99.90;;;;;;5943871;22;20335;-75
2021/07/25 09:38:33;;;;;;;8.80;6.43;;;21.10;99.90;;;;;;5012021;28;20203;-74
2021/07/25 09:41:00;;;;;;;7.83;6.83;;;21.10;99.90;;;;;;5014640;28;20187;-74
2021/07/25 09:43:26;;;;;;;7.67;6.97;;;21.00;99.90;;;;;;5005874;28;20199;-73
2021/07/25 09:45:54;;;;;;;7.50;7.00;;;21.00;99.90;;;;;;5013247;28;20207;-74
2021/07/25 09:48:33;;;;;;;7.90;7.13;;;21.00;99.90;;;;;;5003259;28;20339;-75
2021/07/25 09:51:19;;;;;;;7.23;6.70;;;21.10;99.90;;;;;;5006660;28;20647;-77
2021/07/25 09:53:54;;;;;;;8.00;7.20;;;21.00;99.90;;;;;;5011671;28;20543;-77
2021/07/25 09:56:27;;;;;;;9.27;8.40;;;20.90;99.90;;;;;;5009358;28;20206;-77
2021/07/25 09:58:55;;;;;;;8.10;7.40;;;20.90;99.90;;;;;;5005417;28;20683;-77
2021/07/25 10:01:37;;;;;;;7.50;6.97;;;20.80;99.90;;;;;;4996204;28;20176;-77
2021/07/25 10:04:21;;;;;;;8.20;7.60;;;20.80;99.90;;;;;;5004353;28;20172;-77
2021/07/25 10:06:51;;;;;;;7.73;7.13;;;20.70;99.90;;;;;;4993093;28;20252;-76
2021/07/25 10:09:19;;;;;;;8.50;7.80;;;20.60;99.90;;;;;;5014621;28;20171;-76
2021/07/25 10:12:00;;;;;;;8.93;8.03;;;20.60;99.90;;;;;;5006227;28;20172;-76
2021/07/25 10:14:29;;;;;;;9.40;8.60;;;20.60;99.90;;;;;;5004028;28;20541;-76
2021/07/25 10:16:57;;;;;;;8.00;7.20;;;20.60;99.90;;;;;;4999316;28;20195;-75
2021/07/25 10:19:31;;;;;;;10.33;7.53;;;20.60;99.90;;;;;;5012817;28;20597;-74
2021/07/25 10:21:58;;;;;;;8.73;7.80;;;20.60;99.90;;;;;;5002728;28;20197;-75
2021/07/25 10:24:26;;;;;;;8.73;6.70;;;20.60;99.90;;;;;;5015126;28;20179;-75
2021/07/25 10:26:56;;;;;;;6.37;5.77;;;20.60;99.90;;;;;;4997109;28;20561;-75
2021/07/25 10:29:23;;;;;;;6.73;5.60;;;20.50;99.90;;;;;;4996527;28;20552;-74
2021/07/25 10:31:51;;;;;;;6.20;5.60;;;20.40;99.90;;;;;;5013409;28;20175;-74
2021/07/25 10:34:19;;;;;;;6.43;5.63;;;20.30;99.90;;;;;;5012713;28;20175;-74
2021/07/25 10:36:45;;;;;;;5.80;5.30;;;20.10;99.90;;;;;;5013019;28;20205;-74
2021/07/25 10:39:12;;;;;;;6.37;5.67;;;20.10;99.90;;;;;;5013083;28;20675;-73
2021/07/25 10:41:41;;;;;;;58.20;7.40;;;20.00;99.90;;;;;;5008753;28;20184;-76
2021/07/25 10:50:05;;;;;;;4.07;3.67;;;19.70;99.90;;;;;;5000195;28;20226;-75
2021/07/25 10:52:49;;;;;;;4.90;4.40;;;19.60;99.90;;;;;;4990583;28;20269;-75
2021/07/25 10:55:43;;;;;;;4.20;3.77;;;19.50;99.90;;;;;;4992552;28;20168;-77
2021/07/25 10:58:22;;;;;;;5.07;4.00;;;19.50;99.90;;;;;;4993729;28;20223;-76
2021/07/25 11:00:50;;;;;;;38.97;5.83;;;19.40;99.90;;;;;;4992526;28;20717;-77
2021/07/25 11:03:25;;;;;;;6.63;4.33;;;19.30;99.90;;;;;;4986088;28;20177;-77
2021/07/25 11:06:00;;;;;;;8.40;4.80;;;19.20;99.90;;;;;;4985471;28;20211;-77
2021/07/25 11:08:54;;;;;;;5.40;4.53;;;19.10;99.90;;;;;;4963059;28;20234;-77
2021/07/25 11:11:26;;;;;;;5.47;4.93;;;19.00;99.90;;;;;;4974587;28;21008;-78
2021/07/25 11:13:52;;;;;;;5.57;4.67;;;19.00;99.90;;;;;;4962339;28;20176;-77
2021/07/25 11:16:30;;;;;;;5.60;5.10;;;18.90;99.90;;;;;;5026085;23;20309;-79
2021/07/25 11:19:20;;;;;;;5.60;5.10;;;18.80;99.90;;;;;;5006489;28;20213;-79
2021/07/25 11:21:50;;;;;;;6.37;5.70;;;18.70;99.90;;;;;;4966052;28;20191;-80
2021/07/25 11:24:26;;;;;;;6.83;6.23;;;18.70;99.90;;;;;;5028433;28;20179;-79
2021/07/25 11:26:54;;;;;;;6.20;4.50;;;18.80;99.90;;;;;;5018958;28;20226;-80
2021/07/25 11:29:23;;;;;;;5.40;4.87;;;18.70;99.90;;;;;;5004169;28;20186;-80
2021/07/25 11:31:50;;;;;;;4.60;4.20;;;18.80;99.90;;;;;;5023671;28;20190;-79
2021/07/25 11:34:31;;;;;;;4.97;4.20;;;18.80;99.90;;;;;;4995875;28;20233;-78
2021/07/25 11:36:59;;;;;;;4.80;3.93;;;18.70;99.90;;;;;;5008985;28;20224;-78
2021/07/25 11:39:25;;;;;;;7.17;4.47;;;18.50;99.90;;;;;;5011639;28;20589;-77
2021/07/25 11:41:51;;;;;;;4.83;4.40;;;18.50;99.90;;;;;;5008673;28;20182;-80
2021/07/25 11:44:27;;;;;;;5.10;4.20;;;18.40;99.90;;;;;;5016212;28;20166;-78
2021/07/25 11:46:54;;;;;;;5.00;4.53;;;18.30;99.90;;;;;;5010972;28;20213;-79
2021/07/25 11:49:21;;;;;;;5.27;4.40;;;18.50;99.90;;;;;;5021477;28;20193;-81
2021/07/25 11:51:58;;;;;;;6.23;4.00;;;18.50;99.90;;;;;;5000571;28;20670;-81
2021/07/25 11:54:41;;;;;;;4.70;4.30;;;18.40;99.90;;;;;;5017696;28;20182;-81
2021/07/25 11:57:14;;;;;;;4.33;3.93;;;18.50;99.90;;;;;;5016484;28;20283;-81
2021/07/25 11:59:54;;;;;;;4.87;4.13;;;18.40;99.90;;;;;;4997109;28;20191;-80
2021/07/25 12:02:30;;;;;;;4.73;4.37;;;18.40;99.90;;;;;;5015590;28;20277;-81
2021/07/25 12:04:57;;;;;;;7.17;4.83;;;18.30;99.90;;;;;;5010272;28;20601;-78
2021/07/25 12:07:33;;;;;;;5.10;4.53;;;18.30;99.90;;;;;;5027160;28;20210;-80
2021/07/25 12:09:59;;;;;;;5.33;4.83;;;18.30;99.90;;;;;;5018536;28;20186;-78
2021/07/25 12:12:30;;;;;;;4.60;4.20;;;18.30;99.90;;;;;;5010529;28;20217;-81
2021/07/25 12:14:58;;;;;;;5.37;4.87;;;18.20;99.90;;;;;;5012864;28;20194;-80
2021/07/25 12:17:44;;;;;;;4.90;4.50;;;18.20;99.90;;;;;;5027772;28;20218;-82
2021/07/25 12:20:18;;;;;;;8.20;5.27;;;18.30;99.90;;;;;;5008175;28;20183;-76
2021/07/25 12:22:57;;;;;;;5.73;4.47;;;18.20;99.90;;;;;;5010541;28;20191;-76
2021/07/25 12:25:26;;;;;;;5.07;4.53;;;18.10;99.90;;;;;;5012326;28;20307;-77
2021/07/25 12:28:21;;;;;;;4.73;4.33;;;18.20;99.90;;;;;;5010767;28;20214;-75
2021/07/25 12:30:55;;;;;;;4.80;4.20;;;18.30;99.90;;;;;;4995230;28;20214;-76
2021/07/25 12:33:39;;;;;;;4.13;3.83;;;18.20;99.90;;;;;;5009012;28;20183;-76
2021/07/25 12:36:11;;;;;;;4.70;4.30;;;18.20;99.90;;;;;;5011187;28;20314;-76
2021/07/25 12:38:37;;;;;;;4.83;4.33;;;18.30;99.90;;;;;;5019874;28;20215;-77
2021/07/25 12:41:03;;;;;;;5.53;5.03;;;18.30;99.90;;;;;;5004501;28;20230;-76
2021/07/25 12:43:30;;;;;;;5.50;4.73;;;18.40;99.90;;;;;;5014073;28;20187;-76
2021/07/25 12:45:59;;;;;;;4.37;3.97;;;18.40;99.90;;;;;;5006654;28;20293;-77
2021/07/25 12:48:33;;;;;;;3.43;3.13;;;18.40;99.90;;;;;;5006232;28;20682;-77
2021/07/25 12:53:55;;;;;;;4.30;3.70;;;18.50;99.90;;;;;;5002613;28;20243;-75
2021/07/25 12:56:25;;;;;;;3.80;3.43;;;18.60;99.90;;;;;;5009417;28;20550;-77
2021/07/25 12:58:53;;;;;;;3.70;3.40;;;18.70;99.90;;;;;;5005702;28;20176;-77
2021/07/25 13:03:56;;;;;;;3.30;3.00;;;19.00;99.90;;;;;;5014951;28;20710;-77
2021/07/25 13:06:31;;;;;;;2.90;2.27;;;19.30;99.90;;;;;;5014007;28;20214;-77
2021/07/25 13:09:02;;;;;;;4.47;4.07;;;19.20;99.90;;;;;;5015666;28;20178;-77
2021/07/25 13:11:31;;;;;;;3.17;2.50;;;19.40;99.90;;;;;;5011179;28;20179;-76
2021/07/25 13:13:58;;;;;;;3.30;2.20;;;19.50;99.90;;;;;;5004826;28;20190;-77
2021/07/25 13:16:24;;;;;;;4.20;3.13;;;19.30;99.90;;;;;;5002900;28;20222;-76
2021/07/25 13:18:53;;;;;;;2.73;2.53;;;19.50;99.90;;;;;;5008543;28;20187;-78
2021/07/25 13:21:19;;;;;;;3.40;3.10;;;19.50;99.90;;;;;;5009447;28;20194;-79
2021/07/25 13:23:46;;;;;;;2.93;2.70;;;19.60;99.90;;;;;;5000423;28;20192;-78
2021/07/25 13:26:12;;;;;;;2.87;2.30;;;19.70;99.90;;;;;;5015022;28;20211;-77
2021/07/25 13:28:38;;;;;;;2.63;2.40;;;19.60;99.90;;;;;;5013641;28;20613;-78
2021/07/25 13:31:04;;;;;;;2.57;2.37;;;19.70;99.90;;;;;;5015805;28;20175;-78